createdAt,value
2023-01-19T00:00:33.064Z,5.75
2023-01-19T00:03:37.224Z,5.62
2023-01-19T00:06:40.155Z,5.64
2023-01-19T00:09:43.634Z,5.62
2023-01-19T00:12:46.577Z,5.71
2023-01-19T00:15:49.844Z,5.68
2023-01-19T00:18:53.249Z,5.78
2023-01-19T00:21:56.630Z,5.71
2023-01-19T00:24:59.515Z,5.62
2023-01-19T00:28:02.734Z,5.60
2023-01-19T00:31:05.801Z,5.70
2023-01-19T00:34:09.335Z,5.71
2023-01-19T00:37:12.574Z,5.70
2023-01-19T00:40:15.956Z,5.62
2023-01-19T00:43:18.734Z,5.55
2023-01-19T00:46:27.333Z,5.54
2023-01-19T00:49:30.292Z,5.45
2023-01-19T00:52:33.715Z,5.39
2023-01-19T00:55:36.439Z,5.38
2023-01-19T00:58:39.460Z,5.35
2023-01-19T01:01:46.004Z,5.28
2023-01-19T01:04:55.043Z,5.22
2023-01-19T01:07:58.173Z,5.24
2023-01-19T01:11:02.379Z,5.16
2023-01-19T01:14:05.311Z,5.01
2023-01-19T01:17:11.664Z,5.02
2023-01-19T01:20:19.373Z,4.96
2023-01-19T01:23:23.214Z,4.98
2023-01-19T01:26:27.154Z,5.06
2023-01-19T01:29:31.052Z,5.06
2023-01-19T01:32:34.044Z,5.04
2023-01-19T01:35:37.298Z,4.87
2023-01-19T01:38:41.230Z,4.92
2023-01-19T01:41:44.466Z,4.87
2023-01-19T01:44:50.420Z,4.91
2023-01-19T01:47:57.521Z,4.78
2023-01-19T01:51:26.222Z,4.83
2023-01-19T01:54:32.921Z,4.86
2023-01-19T01:57:44.104Z,4.79
2023-01-19T02:01:05.912Z,4.78
2023-01-19T02:04:09.410Z,4.86
2023-01-19T02:07:36.486Z,4.95
2023-01-19T02:11:00.129Z,4.87
2023-01-19T02:14:06.959Z,5.02
2023-01-19T02:17:10.244Z,5.03
2023-01-19T02:20:14.080Z,4.98
2023-01-19T02:23:32.107Z,4.97
2023-01-19T02:26:39.370Z,4.93
2023-01-19T02:29:42.847Z,5.04
2023-01-19T02:32:46.037Z,5.03
2023-01-19T02:35:52.508Z,4.85
2023-01-19T02:39:00.440Z,4.82
2023-01-19T02:42:11.198Z,4.83
2023-01-19T02:45:17.459Z,4.72
2023-01-19T02:48:21.508Z,4.63
2023-01-19T02:51:25.460Z,4.58
2023-01-19T02:54:34.237Z,4.51
2023-01-19T02:57:56.753Z,4.35
2023-01-19T03:01:34.712Z,4.32
2023-01-19T03:04:56.721Z,4.21
2023-01-19T03:08:25.497Z,4.18
2023-01-19T03:11:33.917Z,4.00
2023-01-19T03:14:45.403Z,3.79
2023-01-19T03:17:51.075Z,3.64
2023-01-19T03:20:58.449Z,3.64
2023-01-19T03:24:05.154Z,3.51
2023-01-19T03:27:17.739Z,3.39
2023-01-19T03:30:26.368Z,3.32
2023-01-19T03:33:33.356Z,3.23
2023-01-19T03:36:41.380Z,3.19
2023-01-19T03:39:44.754Z,3.11
2023-01-19T03:42:50.432Z,3.05
2023-01-19T03:45:55.543Z,2.95
2023-01-19T03:48:59.600Z,2.87
2023-01-19T03:52:02.883Z,2.93
2023-01-19T03:55:06.581Z,3.01
2023-01-19T03:58:10.411Z,3.03
2023-01-19T04:01:15.233Z,3.05
2023-01-19T04:04:18.618Z,3.19
2023-01-19T04:07:21.421Z,3.30
2023-01-19T04:10:24.835Z,3.37
2023-01-19T04:13:30.227Z,3.39
2023-01-19T04:16:33.570Z,3.36
2023-01-19T04:19:36.337Z,3.31
2023-01-19T04:22:39.822Z,3.22
2023-01-19T04:25:42.696Z,3.23
2023-01-19T04:28:46.248Z,3.26
2023-01-19T04:31:48.991Z,3.30
2023-01-19T04:34:52.307Z,3.40
2023-01-19T04:37:55.181Z,3.43
2023-01-19T04:40:58.476Z,3.43
2023-01-19T04:44:01.344Z,3.48
2023-01-19T04:47:04.797Z,3.43
2023-01-19T04:50:08.718Z,3.50
2023-01-19T04:53:13.925Z,3.54
2023-01-19T04:56:16.836Z,3.59
2023-01-19T04:59:20.700Z,3.65
2023-01-19T05:02:24.332Z,3.63
2023-01-19T05:05:27.787Z,3.65
2023-01-19T05:08:30.646Z,3.67
2023-01-19T05:11:33.838Z,3.67
2023-01-19T05:14:37.012Z,3.74
2023-01-19T05:17:40.501Z,3.80
2023-01-19T05:20:43.436Z,3.75
2023-01-19T05:23:46.824Z,3.72
2023-01-19T05:26:49.762Z,3.75
2023-01-19T05:29:52.982Z,3.63
2023-01-19T05:32:56.001Z,3.63
2023-01-19T05:35:59.076Z,3.57
2023-01-19T05:39:01.916Z,3.48
2023-01-19T05:42:05.176Z,3.41
2023-01-19T05:45:08.840Z,3.40
2023-01-19T05:48:12.008Z,3.40
2023-01-19T05:51:15.478Z,3.34
2023-01-19T05:54:19.020Z,3.34
2023-01-19T05:57:22.625Z,3.29
2023-01-19T06:00:27.793Z,3.34
2023-01-19T06:03:30.845Z,3.28
2023-01-19T06:06:33.727Z,3.30
2023-01-19T06:09:36.776Z,3.27
2023-01-19T06:12:41.769Z,3.14
2023-01-19T06:15:45.705Z,3.14
2023-01-19T06:18:48.564Z,3.14
2023-01-19T06:21:52.605Z,3.17
2023-01-19T06:24:55.383Z,3.13
2023-01-19T06:27:58.474Z,3.02
2023-01-19T06:31:01.793Z,2.95
2023-01-19T06:34:05.070Z,2.93
2023-01-19T06:37:07.739Z,2.83
2023-01-19T06:40:13.700Z,2.80
2023-01-19T06:43:17.259Z,2.82
2023-01-19T06:46:20.370Z,2.86
2023-01-19T06:49:23.045Z,2.80
2023-01-19T06:52:26.140Z,2.80
2023-01-19T06:55:28.898Z,2.72
2023-01-19T06:58:32.175Z,2.75
2023-01-19T07:01:35.276Z,2.67
2023-01-19T07:04:38.583Z,2.65
2023-01-19T07:07:43.365Z,2.65
2023-01-19T07:11:26.869Z,2.63
2023-01-19T07:14:09.524Z,2.63
2023-01-19T07:17:13.256Z,2.67
2023-01-19T07:20:17.655Z,2.68
2023-01-19T07:23:21.206Z,2.69
2023-01-19T07:26:25.484Z,2.70
2023-01-19T07:29:28.714Z,2.70
2023-01-19T07:32:31.825Z,2.73
2023-01-19T07:35:35.161Z,2.73
2023-01-19T07:38:38.170Z,2.78
2023-01-19T07:41:41.387Z,2.76
2023-01-19T07:44:44.297Z,2.77
2023-01-19T07:47:52.173Z,2.80
2023-01-19T07:51:00.482Z,2.80
2023-01-19T07:54:03.836Z,2.73
2023-01-19T07:57:06.651Z,2.75
2023-01-19T08:00:10.567Z,2.76
2023-01-19T08:03:15.103Z,2.75
2023-01-19T08:06:25.863Z,2.76
2023-01-19T08:09:28.855Z,2.71
2023-01-19T08:12:31.995Z,2.73
2023-01-19T08:15:34.835Z,2.75
2023-01-19T08:18:38.259Z,2.80
2023-01-19T08:21:41.294Z,2.78
2023-01-19T08:24:44.641Z,2.81
2023-01-19T08:27:47.553Z,2.82
2023-01-19T08:30:56.482Z,2.81
2023-01-19T08:33:59.502Z,2.82
2023-01-19T08:37:02.695Z,2.84
2023-01-19T08:40:06.929Z,2.88
2023-01-19T08:43:13.598Z,2.90
2023-01-19T08:46:17.785Z,2.88
2023-01-19T08:49:21.044Z,2.86
2023-01-19T08:52:26.613Z,2.88
2023-01-19T08:55:30.421Z,2.88
2023-01-19T08:58:33.266Z,2.89
2023-01-19T09:01:37.635Z,2.89
2023-01-19T09:04:40.609Z,2.87
2023-01-19T09:07:46.862Z,2.86
2023-01-19T09:10:51.828Z,2.84
2023-01-19T09:13:55.004Z,2.85
2023-01-19T09:16:57.821Z,2.80
2023-01-19T09:20:01.228Z,2.79
2023-01-19T09:23:04.514Z,2.73
2023-01-19T09:26:07.748Z,2.70
2023-01-19T09:29:10.732Z,2.67
2023-01-19T09:32:14.913Z,2.62
2023-01-19T09:35:17.787Z,2.56
2023-01-19T09:38:22.680Z,2.51
2023-01-19T09:41:26.561Z,2.51
2023-01-19T09:44:33.945Z,2.49
2023-01-19T09:47:38.785Z,2.46
2023-01-19T09:50:46.839Z,2.45
2023-01-19T09:54:16.015Z,2.48
2023-01-19T09:57:19.569Z,2.43
2023-01-19T10:00:24.786Z,2.42
2023-01-19T10:03:28.074Z,2.43
2023-01-19T10:06:31.289Z,2.49
2023-01-19T10:09:53.711Z,2.49
2023-01-19T10:13:54.502Z,2.51
2023-01-19T10:17:43.079Z,2.49
2023-01-19T10:20:52.777Z,2.47
2023-01-19T10:24:00.956Z,2.52
2023-01-19T10:27:09.437Z,2.45
2023-01-19T10:30:24.365Z,2.44
2023-01-19T10:33:35.541Z,2.46
2023-01-19T10:36:40.667Z,2.50
2023-01-19T10:39:52.673Z,2.46
2023-01-19T10:42:57.276Z,2.47
2023-01-19T10:46:01.267Z,2.47
2023-01-19T10:49:05.137Z,2.49
2023-01-19T10:52:20.023Z,2.49
2023-01-19T10:55:41.579Z,2.48
2023-01-19T10:58:44.431Z,2.46
2023-01-19T11:02:04.282Z,2.49
2023-01-19T11:05:26.077Z,2.46
2023-01-19T11:08:31.206Z,2.47
2023-01-19T11:11:43.387Z,2.47
2023-01-19T11:14:48.006Z,2.49
2023-01-19T11:17:52.155Z,2.45
2023-01-19T11:20:58.318Z,2.48
2023-01-19T11:24:05.540Z,2.51
2023-01-19T11:27:09.155Z,2.51
2023-01-19T11:30:21.838Z,2.55
2023-01-19T11:33:32.646Z,2.59
2023-01-19T11:36:36.761Z,2.62
2023-01-19T11:39:55.439Z,2.63
2023-01-19T11:42:59.029Z,2.64
2023-01-19T11:46:03.109Z,2.61
2023-01-19T11:49:13.149Z,2.66
2023-01-19T11:52:38.022Z,2.66
2023-01-19T11:55:57.359Z,2.71
2023-01-19T11:59:02.639Z,2.73
2023-01-19T12:02:38.490Z,2.73
2023-01-19T12:05:48.191Z,2.67
2023-01-19T12:09:06.252Z,2.65
2023-01-19T12:12:15.848Z,2.66
2023-01-19T12:15:33.352Z,2.66
2023-01-19T12:19:08.314Z,2.64
2023-01-19T12:22:15.836Z,2.62
2023-01-19T12:25:30.157Z,2.55
2023-01-19T12:28:37.984Z,2.47
2023-01-19T12:31:43.322Z,2.40
2023-01-19T12:34:52.156Z,2.39
2023-01-19T12:37:55.297Z,2.38
2023-01-19T12:41:21.997Z,2.37
2023-01-19T12:44:28.054Z,2.38
2023-01-19T12:47:30.904Z,2.32
2023-01-19T12:50:38.424Z,2.27
2023-01-19T12:53:59.925Z,2.26
2023-01-19T12:57:19.553Z,2.22
2023-01-19T13:00:22.210Z,2.20
2023-01-19T13:03:28.156Z,2.20
2023-01-19T13:06:49.416Z,2.18
2023-01-19T13:09:52.570Z,2.14
2023-01-19T13:13:17.603Z,2.09
2023-01-19T13:16:21.103Z,2.07
2023-01-19T13:19:35.330Z,2.04
2023-01-19T13:22:50.684Z,2.02
2023-01-19T13:26:01.479Z,1.98
2023-01-19T13:29:14.274Z,1.97
2023-01-19T13:32:21.303Z,1.95
2023-01-19T13:35:25.015Z,1.89
2023-01-19T13:38:29.559Z,1.86
2023-01-19T13:41:38.170Z,1.81
2023-01-19T13:44:52.656Z,1.77
2023-01-19T13:47:58.221Z,1.75
2023-01-19T13:51:07.385Z,1.71
2023-01-19T13:54:16.648Z,1.69
2023-01-19T13:57:31.323Z,1.72
2023-01-19T14:00:34.495Z,1.69
2023-01-19T14:03:41.100Z,1.71
2023-01-19T14:06:48.911Z,1.73
2023-01-19T14:10:06.761Z,1.72
2023-01-19T14:13:22.553Z,1.74
2023-01-19T14:16:25.769Z,1.73
2023-01-19T14:19:28.901Z,1.74
2023-01-19T14:22:39.087Z,1.74
2023-01-19T14:25:44.933Z,1.75
2023-01-19T14:28:47.995Z,1.70
2023-01-19T14:32:02.603Z,1.74
2023-01-19T14:35:05.857Z,1.73
2023-01-19T14:38:14.728Z,1.71
2023-01-19T14:41:25.623Z,1.69
2023-01-19T14:44:41.320Z,1.73
2023-01-19T14:47:46.220Z,1.70
2023-01-19T14:51:02.793Z,1.69
2023-01-19T14:54:15.829Z,1.75
2023-01-19T14:57:18.521Z,1.76
2023-01-19T15:00:22.223Z,1.75
2023-01-19T15:03:42.869Z,1.74
2023-01-19T15:06:47.451Z,1.73
2023-01-19T15:09:50.781Z,1.71
2023-01-19T15:12:55.097Z,1.68
2023-01-19T15:15:58.647Z,1.63
2023-01-19T15:19:01.928Z,1.64
2023-01-19T15:22:12.229Z,1.65
2023-01-19T15:25:20.507Z,1.65
2023-01-19T15:28:23.288Z,1.65
2023-01-19T15:31:26.918Z,1.66
2023-01-19T15:34:29.828Z,1.67
2023-01-19T15:37:33.231Z,1.67
2023-01-19T15:40:36.093Z,1.65
2023-01-19T15:43:39.154Z,1.63
2023-01-19T15:46:41.963Z,1.69
2023-01-19T15:49:45.025Z,1.69
2023-01-19T15:52:47.895Z,1.73
2023-01-19T15:55:52.675Z,1.71
2023-01-19T15:58:56.825Z,1.70
2023-01-19T16:02:00.122Z,1.73
2023-01-19T16:05:03.871Z,1.66
2023-01-19T16:08:06.676Z,1.60
2023-01-19T16:11:16.021Z,1.62
2023-01-19T16:14:19.005Z,1.57
2023-01-19T16:17:22.182Z,1.60
2023-01-19T16:20:24.967Z,1.48
2023-01-19T16:23:28.244Z,1.54
2023-01-19T16:26:34.684Z,1.51
2023-01-19T16:29:37.999Z,1.49
2023-01-19T16:32:40.858Z,1.42
2023-01-19T16:35:44.472Z,1.40
2023-01-19T16:38:47.643Z,1.40
2023-01-19T16:41:50.867Z,1.40
2023-01-19T16:44:55.025Z,1.37
2023-01-19T16:47:58.345Z,1.31
2023-01-19T16:51:07.251Z,1.36
2023-01-19T16:54:29.578Z,1.32
2023-01-19T16:57:33.236Z,1.31
2023-01-19T17:00:38.968Z,1.31
2023-01-19T17:03:43.066Z,1.31
2023-01-19T17:06:47.051Z,1.29
2023-01-19T17:09:50.675Z,1.32
2023-01-19T17:12:54.820Z,1.30
2023-01-19T17:16:02.976Z,1.36
2023-01-19T17:19:08.061Z,1.36
2023-01-19T17:22:13.529Z,1.35
2023-01-19T17:25:17.752Z,1.25
2023-01-19T17:28:21.143Z,1.29
2023-01-19T17:31:28.007Z,1.26
2023-01-19T17:34:30.862Z,1.24
2023-01-19T17:37:36.932Z,1.21
2023-01-19T17:40:40.399Z,1.24
2023-01-19T17:43:45.263Z,1.22
2023-01-19T17:46:48.940Z,1.17
2023-01-19T17:49:54.785Z,1.16
2023-01-19T17:52:58.995Z,1.20
2023-01-19T17:56:14.971Z,1.18
2023-01-19T17:59:19.313Z,1.09
2023-01-19T18:02:26.846Z,1.09
2023-01-19T18:05:33.890Z,1.03
2023-01-19T18:08:43.578Z,1.03
2023-01-19T18:11:48.119Z,0.99
2023-01-19T18:14:52.152Z,1.00
2023-01-19T18:17:57.427Z,0.93
2023-01-19T18:21:03.687Z,0.91
2023-01-19T18:24:08.083Z,0.89
2023-01-19T18:27:12.285Z,0.90
2023-01-19T18:30:17.631Z,0.89
2023-01-19T18:33:21.015Z,0.88
2023-01-19T18:36:25.911Z,0.79
2023-01-19T18:39:31.861Z,0.89
2023-01-19T18:42:36.393Z,0.84
2023-01-19T18:45:42.795Z,0.85
2023-01-19T18:48:47.760Z,0.86
2023-01-19T18:51:53.022Z,0.88
2023-01-19T18:54:57.506Z,0.94
2023-01-19T18:58:02.253Z,0.90
2023-01-19T19:01:33.227Z,1.05
2023-01-19T19:04:37.422Z,1.00
2023-01-19T19:07:43.017Z,0.97
2023-01-19T19:10:50.740Z,0.96
2023-01-19T19:13:57.866Z,1.02
2023-01-19T19:17:01.957Z,0.95
2023-01-19T19:20:06.866Z,1.05
2023-01-19T19:23:12.437Z,1.06
2023-01-19T19:26:16.487Z,1.05
2023-01-19T19:29:20.480Z,1.07
2023-01-19T19:32:24.573Z,1.03
2023-01-19T19:35:31.283Z,1.08
2023-01-19T19:38:44.624Z,1.12
2023-01-19T19:41:50.475Z,1.15
2023-01-19T19:44:57.746Z,1.13
2023-01-19T19:48:02.215Z,1.15
2023-01-19T19:51:18.539Z,1.14
2023-01-19T19:54:23.415Z,1.15
2023-01-19T19:57:34.482Z,1.09
2023-01-19T20:00:38.912Z,1.10
2023-01-19T20:03:43.640Z,1.04
2023-01-19T20:06:48.620Z,1.00
2023-01-19T20:09:54.327Z,1.01
2023-01-19T20:12:57.851Z,1.05
2023-01-19T20:16:07.191Z,0.94
2023-01-19T20:19:13.690Z,0.94
2023-01-19T20:22:18.872Z,0.93
2023-01-19T20:25:22.893Z,0.88
2023-01-19T20:28:27.682Z,0.80
2023-01-19T20:31:35.119Z,0.78
2023-01-19T20:34:39.814Z,0.67
2023-01-19T20:37:43.887Z,0.65
2023-01-19T20:40:48.594Z,0.72
2023-01-19T20:43:53.499Z,0.77
2023-01-19T20:46:59.078Z,0.84
2023-01-19T20:50:02.803Z,0.84
2023-01-19T20:53:07.295Z,0.94
2023-01-19T20:56:13.746Z,0.97
2023-01-19T20:59:18.237Z,0.94
2023-01-19T21:02:22.574Z,0.91
2023-01-19T21:05:26.696Z,0.94
2023-01-19T21:08:31.161Z,0.93
2023-01-19T21:11:36.880Z,0.89
2023-01-19T21:14:40.548Z,0.89
2023-01-19T21:17:45.228Z,0.83
2023-01-19T21:20:49.692Z,0.81
2023-01-19T21:23:55.651Z,0.86
2023-01-19T21:26:58.680Z,0.94
2023-01-19T21:30:02.636Z,0.98
2023-01-19T21:33:08.134Z,0.96
2023-01-19T21:36:11.725Z,0.94
2023-01-19T21:39:17.190Z,0.96
2023-01-19T21:42:20.581Z,0.91
2023-01-19T21:45:23.896Z,0.84
2023-01-19T21:48:27.501Z,0.81
2023-01-19T21:51:34.999Z,0.86
2023-01-19T21:54:38.275Z,0.88
2023-01-19T21:57:41.241Z,0.88
2023-01-19T22:00:45.355Z,0.80
2023-01-19T22:03:48.595Z,0.81
2023-01-19T22:06:51.361Z,0.70
2023-01-19T22:09:54.366Z,0.63
2023-01-19T22:12:57.104Z,0.56
2023-01-19T22:16:01.615Z,0.54
2023-01-19T22:19:04.484Z,0.39
2023-01-19T22:22:07.538Z,0.30
2023-01-19T22:25:10.598Z,0.16
2023-01-19T22:28:13.766Z,0.11
2023-01-19T22:31:18.579Z,0.06
2023-01-19T22:34:21.781Z,-0.02
2023-01-19T22:37:24.796Z,-0.04
2023-01-19T22:40:27.998Z,-0.02
2023-01-19T22:43:30.767Z,0.05
2023-01-19T22:46:36.565Z,0.10
2023-01-19T22:49:39.349Z,0.15
2023-01-19T22:52:42.699Z,0.28
2023-01-19T22:55:45.487Z,0.40
2023-01-19T22:58:49.406Z,0.44
2023-01-19T23:01:52.462Z,0.54
2023-01-19T23:04:55.635Z,0.57
2023-01-19T23:07:58.413Z,0.65
2023-01-19T23:11:10.157Z,0.65
2023-01-19T23:14:16.470Z,0.51
2023-01-19T23:17:19.670Z,0.55
2023-01-19T23:20:22.607Z,0.63
2023-01-19T23:23:25.628Z,0.59
2023-01-19T23:26:31.028Z,0.59
2023-01-19T23:29:34.272Z,0.54
2023-01-19T23:32:37.121Z,0.30
2023-01-19T23:35:40.266Z,0.21
2023-01-19T23:38:48.032Z,0.31
2023-01-19T23:41:51.271Z,0.29
2023-01-19T23:44:54.055Z,0.36
2023-01-19T23:47:57.119Z,0.41
2023-01-19T23:51:00.000Z,0.55
2023-01-19T23:54:03.126Z,0.54
2023-01-19T23:57:05.806Z,0.61
